METAR Data
IDs: Format: Raw Decoded Include TAF

Data at: 1048 UTC 28 Jul 2021

Region: TOP
KATL 281038Z 27004KT 3/4SM R09R/P6000FT BR BKN003 23/22 A3005 RMK AO2 SFC VIS 5 CIG 002V004 TWRINC T02280217

KBOS 280954Z 03006KT 10SM FEW014 OVC027 20/17 A2996 RMK AO2 SLP144 T02000167 $

KBWI 280954Z 31006KT 10SM CLR 23/16 A2997 RMK AO2 SLP148 T02330161

KCLE 280951Z 20004KT 10SM SCT100 21/18 A3001 RMK AO2 SLP171 T02060183

KCLT 280952Z 36003KT 7SM FEW250 22/21 A3001 RMK AO2 SLP152 T02170206 $

KCVG 280952Z 00000KT 10SM CLR 20/18 A3007 RMK AO2 SLP172 T02000178

KDCA 280952Z 34008KT 10SM FEW070 SCT090 24/17 A2998 RMK AO2 SLP152 T02440167

KDEN 280953Z 17011KT 10SM CLR 21/12 A3017 RMK AO2 SLP117 T02110122

KDFW 280953Z 12004KT 10SM FEW190 SCT250 27/21 A3000 RMK AO2 SLP149 T02720211 $

KDTW 280953Z 32005KT 7SM SCT075 BKN140 BKN200 21/18 A3002 RMK AO2 SLP161 T02060183 $

KEWR 280951Z 34010KT 10SM SCT085 BKN210 BKN250 22/19 A2995 RMK AO2 SLP141 T02220189 $

KFLL 280953Z 25003KT 10SM FEW250 27/24 A3002

KIAD 280952Z 00000KT 10SM FEW065 BKN085 20/16 A3000 RMK AO2 SLP153 T02000161

KIAH 280953Z 34003KT 10SM CLR 23/21 A3001 RMK AO2 SLP160 T02280206

KJFK 280951Z 33010KT 10SM FEW065 SCT100 SCT250 22/19 A2995 RMK AO2 RAE0855 SLP141 P0000 T02170189

KLAS 280956Z 21004KT 10SM SCT200 BKN250 30/10 A2999 RMK AO2 SLP124 T03000100

KLAX 281046Z 23004KT 10SM BKN007 18/17 A2999 RMK AO2 T01780167

KLGA 280951Z 34008KT 10SM FEW090 SCT200 SCT250 22/18 A2994 RMK AO2 SLP138 T02220183

KMCO 281025Z 20004KT 6SM BR FEW004 FEW045 SCT250 25/24 A3002 RMK AO2 T02500244

KMDW 280953Z 30005KT 10SM -TSRA OVC050CB 25/20 A3005 RMK AO2 LTG DSNT S-NW RAB46 TSB45 SLP165 OCNL LTGIC VC W-NW TS VC W-NW MOV SE P0000 T02500200

KMEM 280954Z VRB03KT 9SM CLR 27/24 A3003 RMK AO2 SLP162 T02720239

KMIA 280953Z 00000KT 10SM FEW030 FEW250 27/24 A3003 RMK AO2 SLP170 T02670244 $

KMSP 280953Z 13007KT 10SM CLR 24/19 A2997 RMK AO2 SLP140 T02390189

KORD 281040Z 24005KT 10SM -RA FEW055 SCT070 BKN090 OVC130 21/19 A3005 RMK AO2 PK WND 34026/0959 LTG DSNT SE-SW TSE34 P0015 T02110194 $

KPDX 280953Z 00000KT 10SM FEW220 FEW280 19/13 A3009 RMK AO2 SLP188 T01940133

KPHL 280954Z 34004KT 10SM FEW070 FEW250 23/16 A2997 RMK AO2 SLP148 T02280156

KPHX 280951Z 00000KT 10SM BKN210 29/18 A2995 RMK AO2 SLP122 T02940183

KPIT 280951Z 00000KT 10SM SCT100 SCT250 18/17 A3005 RMK AO2 SLP174 T01830167

KSAN 281026Z 36004KT 10SM BKN009 21/17 A3000 RMK AO2 T02110172

KSEA 280953Z 00000KT 10SM FEW250 17/09 A3013 RMK AO2 SLP205 T01720094

KSFO 280956Z 30010KT 10SM FEW002 14/12 A3002 RMK AO2 SLP164 T01390122

KSLC 280954Z 16006KT 10SM BKN100 BKN120 27/13 A3014 RMK AO2 SLP140 T02670133

KSTL 280951Z 00000KT 10SM SCT250 24/20 A3008 RMK AO2 SLP173 T02390200

KTPA 280953Z 31003KT 10SM BKN030 28/23 A3002 RMK AO2 TSE0854 SLP164 OCNL LTGIC DSNT W CB DSNT W T02830233